Station History

Weather Underground - logo

Station Historical Data
Daily Summary for July 13, 2018 Units:  English    Metric   Both
« Previous Day
Next Day »
Daily Weekly Monthly Yearly Custom
  High: Low: Average:
Temperature: 101.2 °F 72.4 °F 87 °F
Dew Point: 69.2 °F 58.5 °F 63.2 °F
Humidity: 69 % 26 % 47 %
Wind Speed: 4.6 mph 0.0 mph 1.3 mph
Wind Gust: 3.4 mph - -
Wind:- - SW
Pressure: 29.95 in 29.81 in -
Precipitation: 0.00 in    
Historical Graphs
 
 
Tabular Data for July 13, 2018
Time Temperature Dew Point Pressure Wind Wind Speed Wind Gust Humidity Rainfall Rate (Hourly)
00:04 79.0 °F 63.0 °F 29.86 in ESE 2.3 mph 0.3 mph 58 % 0.00 in
00:09 78.9 °F 62.9 °F 29.86 in ESE 1.2 mph 0.8 mph 58 % 0.00 in
00:14 78.9 °F 62.4 °F 29.86 in Calm     57 % 0.00 in
00:19 78.7 °F 62.2 °F 29.87 in ESE 1.2 mph   57 % 0.00 in
00:24 78.7 °F 61.2 °F 29.87 in Calm     55 % 0.00 in
00:30 78.6 °F 61.1 °F 29.87 in SE 1.2 mph 0.2 mph 55 % 0.00 in
00:34 78.6 °F 60.0 °F 29.87 in SE 1.2 mph   53 % 0.00 in
00:39 78.5 °F 59.9 °F 29.87 in ESE 1.2 mph 0.1 mph 53 % 0.00 in
00:44 78.5 °F 59.4 °F 29.87 in East 1.0 mph   52 % 0.00 in
00:49 78.4 °F 59.3 °F 29.87 in East 1.2 mph   52 % 0.00 in
00:54 78.4 °F 59.3 °F 29.87 in SE 1.2 mph   52 % 0.00 in
00:59 78.2 °F 59.7 °F 29.88 in SE 1.2 mph 0.1 mph 53 % 0.00 in
01:04 78.0 °F 59.5 °F 29.88 in SE 1.2 mph   53 % 0.00 in
01:09 77.8 °F 59.3 °F 29.88 in ESE 1.2 mph   53 % 0.00 in
01:14 77.6 °F 58.6 °F 29.88 in Calm     52 % 0.00 in
01:19 77.5 °F 58.5 °F 29.88 in Calm     52 % 0.00 in
01:24 77.4 °F 58.9 °F 29.88 in Calm     53 % 0.00 in
01:29 77.2 °F 58.7 °F 29.88 in Calm     53 % 0.00 in
01:34 77.0 °F 59.1 °F 29.88 in Calm   0.1 mph 54 % 0.00 in
01:39 76.9 °F 59.0 °F 29.88 in Calm     54 % 0.00 in
01:44 76.8 °F 58.9 °F 29.88 in Calm     54 % 0.00 in
01:49 76.6 °F 58.7 °F 29.88 in Calm     54 % 0.00 in
01:54 76.6 °F 60.2 °F 29.88 in Calm     57 % 0.00 in
01:59 76.4 °F 59.5 °F 29.88 in Calm     56 % 0.00 in
02:04 76.3 °F 60.4 °F 29.88 in Calm     58 % 0.00 in
02:09 76.1 °F 60.7 °F 29.88 in Calm     59 % 0.00 in
02:14 75.9 °F 61.5 °F 29.88 in Calm     61 % 0.00 in
02:19 75.6 °F 60.7 °F 29.88 in Calm     60 % 0.00 in
02:24 75.3 °F 60.0 °F 29.88 in Calm     59 % 0.00 in
02:29 75.2 °F 60.4 °F 29.88 in Calm     60 % 0.00 in
02:34 75.1 °F 60.3 °F 29.88 in Calm     60 % 0.00 in
02:39 75.0 °F 60.6 °F 29.88 in Calm     61 % 0.00 in
02:44 75.1 °F 61.2 °F 29.88 in Calm     62 % 0.00 in
02:49 75.1 °F 60.7 °F 29.88 in Calm     61 % 0.00 in
02:54 75.0 °F 60.6 °F 29.88 in Calm     61 % 0.00 in
02:59 74.9 °F 59.6 °F 29.88 in Calm     59 % 0.00 in
03:04 75.3 °F 60.5 °F 29.88 in Calm     60 % 0.00 in
03:09 75.2 °F 59.4 °F 29.89 in Calm     58 % 0.00 in
03:14 75.2 °F 59.4 °F 29.89 in Calm     58 % 0.00 in
03:19 75.2 °F 60.8 °F 29.89 in Calm     61 % 0.00 in
03:24 75.1 °F 59.8 °F 29.89 in Calm     59 % 0.00 in
03:29 75.0 °F 60.2 °F 29.89 in Calm     60 % 0.00 in
03:34 74.5 °F 60.2 °F 29.88 in Calm     61 % 0.00 in
03:39 74.2 °F 60.3 °F 29.88 in Calm     62 % 0.00 in
03:44 73.9 °F 60.1 °F 29.88 in Calm     62 % 0.00 in
03:49 73.7 °F 60.3 °F 29.88 in Calm     63 % 0.00 in
03:54 73.7 °F 59.9 °F 29.88 in Calm     62 % 0.00 in
03:59 73.7 °F 59.9 °F 29.88 in Calm     62 % 0.00 in
04:04 73.7 °F 59.4 °F 29.88 in Calm     61 % 0.00 in
04:09 73.6 °F 59.8 °F 29.88 in Calm     62 % 0.00 in
04:14 73.5 °F 59.7 °F 29.88 in Calm     62 % 0.00 in
04:19 73.5 °F 60.1 °F 29.89 in Calm     63 % 0.00 in
04:24 73.4 °F 60.0 °F 29.89 in Calm     63 % 0.00 in
04:29 73.3 °F 59.5 °F 29.89 in Calm     62 % 0.00 in
04:34 73.4 °F 59.1 °F 29.89 in Calm     61 % 0.00 in
04:39 73.5 °F 58.8 °F 29.89 in Calm     60 % 0.00 in
04:44 73.6 °F 59.3 °F 29.89 in Calm     61 % 0.00 in
04:49 73.8 °F 59.0 °F 29.89 in Calm     60 % 0.00 in
04:54 73.9 °F 60.1 °F 29.89 in Calm     62 % 0.00 in
04:59 73.9 °F 59.1 °F 29.89 in Calm     60 % 0.00 in
05:04 73.9 °F 59.6 °F 29.89 in Calm     61 % 0.00 in
05:09 73.7 °F 58.9 °F 29.89 in Calm     60 % 0.00 in
05:14 73.5 °F 58.8 °F 29.90 in Calm     60 % 0.00 in
05:19 73.5 °F 60.6 °F 29.90 in Calm     64 % 0.00 in
05:24 73.4 °F 59.1 °F 29.90 in Calm     61 % 0.00 in
05:29 73.5 °F 59.2 °F 29.90 in Calm     61 % 0.00 in
05:34 73.3 °F 59.0 °F 29.90 in Calm     61 % 0.00 in
05:39 73.2 °F 58.9 °F 29.90 in Calm     61 % 0.00 in
05:44 73.3 °F 58.6 °F 29.90 in Calm     60 % 0.00 in
05:49 73.4 °F 58.7 °F 29.90 in Calm     60 % 0.00 in
05:54 73.5 °F 58.8 °F 29.91 in Calm     60 % 0.00 in
05:59 73.6 °F 58.9 °F 29.91 in Calm     60 % 0.00 in
06:04 73.6 °F 60.7 °F 29.91 in Calm     64 % 0.00 in
06:09 73.4 °F 59.1 °F 29.91 in Calm     61 % 0.00 in
06:14 73.3 °F 60.4 °F 29.92 in Calm     64 % 0.00 in
06:19 73.1 °F 60.2 °F 29.92 in Calm     64 % 0.00 in
06:24 72.8 °F 59.5 °F 29.92 in Calm     63 % 0.00 in
06:29 72.7 °F 59.8 °F 29.92 in Calm     64 % 0.00 in
06:34 72.6 °F 60.2 °F 29.92 in Calm     65 % 0.00 in
06:39 72.6 °F 61.0 °F 29.92 in Calm     67 % 0.00 in
06:44 72.4 °F 60.4 °F 29.92 in Calm     66 % 0.00 in
06:49 72.6 °F 60.2 °F 29.92 in SE 1.2 mph   65 % 0.00 in
06:54 73.4 °F 60.0 °F 29.92 in Calm     63 % 0.00 in
06:59 74.5 °F 60.2 °F 29.93 in ESE 1.0 mph   61 % 0.00 in
07:04 75.3 °F 60.5 °F 29.93 in ESE 1.2 mph   60 % 0.00 in
07:09 75.9 °F 60.5 °F 29.93 in ESE 1.2 mph 0.1 mph 59 % 0.00 in
07:14 76.6 °F 60.7 °F 29.93 in ESE 1.2 mph 0.2 mph 58 % 0.00 in
07:19 77.3 °F 60.9 °F 29.93 in SE 2.3 mph   57 % 0.00 in
07:24 77.9 °F 60.9 °F 29.94 in South 1.2 mph 0.1 mph 56 % 0.00 in
07:29 78.4 °F 61.4 °F 29.94 in East 3.5 mph 0.2 mph 56 % 0.00 in
07:34 78.5 °F 61.5 °F 29.94 in SSW 2.0 mph 1.0 mph 56 % 0.00 in
07:39 78.9 °F 61.9 °F 29.94 in SSW 2.3 mph 0.4 mph 56 % 0.00 in
07:44 79.2 °F 61.6 °F 29.94 in SE 1.2 mph 0.4 mph 55 % 0.00 in
07:49 79.3 °F 61.7 °F 29.94 in SE 2.3 mph 1.0 mph 55 % 0.00 in
07:54 79.6 °F 62.5 °F 29.94 in SSE 1.2 mph 0.5 mph 56 % 0.00 in
07:59 80.1 °F 62.5 °F 29.94 in SE 3.0 mph 0.4 mph 55 % 0.00 in
08:04 80.6 °F 62.4 °F 29.94 in Calm   0.8 mph 54 % 0.00 in
08:09 81.0 °F 62.8 °F 29.94 in SSE 1.2 mph 0.7 mph 54 % 0.00 in
08:14 81.6 °F 63.3 °F 29.94 in SSE 1.2 mph 0.3 mph 54 % 0.00 in
08:19 82.3 °F 62.9 °F 29.95 in South 1.2 mph 0.7 mph 52 % 0.00 in
08:24 82.6 °F 63.2 °F 29.95 in SSE 2.3 mph 0.6 mph 52 % 0.00 in
08:29 82.9 °F 62.9 °F 29.95 in SSW 2.0 mph 0.6 mph 51 % 0.00 in
08:34 83.1 °F 63.1 °F 29.95 in NE 2.3 mph 0.5 mph 51 % 0.00 in
08:39 83.9 °F 63.8 °F 29.95 in SSE 1.2 mph 0.4 mph 51 % 0.00 in
08:44 84.4 °F 64.3 °F 29.95 in South 1.0 mph 0.4 mph 51 % 0.00 in
08:49 85.2 °F 63.9 °F 29.95 in SSE 1.2 mph 0.1 mph 49 % 0.00 in
08:54 85.8 °F 64.4 °F 29.95 in South 2.3 mph 0.3 mph 49 % 0.00 in
08:59 85.9 °F 64.5 °F 29.95 in SSW 1.2 mph 0.3 mph 49 % 0.00 in
09:04 86.1 °F 63.5 °F 29.95 in SE 2.3 mph 1.2 mph 47 % 0.00 in
09:09 86.2 °F 64.2 °F 29.95 in ESE 1.2 mph 0.9 mph 48 % 0.00 in
09:14 86.8 °F 64.2 °F 29.95 in SSW 3.5 mph 0.3 mph 47 % 0.00 in
09:19 87.3 °F 64.0 °F 29.95 in SSE 1.2 mph   46 % 0.00 in
09:24 87.7 °F 63.1 °F 29.95 in South 3.5 mph 1.1 mph 44 % 0.00 in
09:29 88.0 °F 64.6 °F 29.95 in South 2.3 mph 0.1 mph 46 % 0.00 in
09:34 88.5 °F 65.1 °F 29.95 in South 1.2 mph   46 % 0.00 in
09:39 89.1 °F 64.3 °F 29.95 in South 2.3 mph 1.0 mph 44 % 0.00 in
09:44 89.2 °F 65.1 °F 29.95 in SE 2.3 mph 0.3 mph 45 % 0.00 in
09:49 89.9 °F 64.4 °F 29.95 in SSE 2.3 mph 0.6 mph 43 % 0.00 in
09:54 89.8 °F 63.6 °F 29.95 in South 2.3 mph 1.9 mph 42 % 0.00 in
09:59 89.6 °F 64.8 °F 29.95 in SSE 3.5 mph 0.6 mph 44 % 0.00 in
10:04 89.7 °F 65.5 °F 29.95 in SSE 3.5 mph 0.7 mph 45 % 0.00 in
10:09 90.0 °F 65.2 °F 29.95 in West 2.3 mph 0.8 mph 44 % 0.00 in
10:14 90.3 °F 65.4 °F 29.95 in ESE 1.2 mph 0.1 mph 44 % 0.00 in
10:19 90.8 °F 64.5 °F 29.95 in North 1.2 mph 0.7 mph 42 % 0.00 in
10:24 91.1 °F 66.8 °F 29.95 in SSE 1.2 mph 0.2 mph 45 % 0.00 in
10:29 91.3 °F 65.0 °F 29.95 in North 2.3 mph 1.2 mph 42 % 0.00 in
10:34 91.4 °F 65.8 °F 29.94 in NE 1.2 mph 0.2 mph 43 % 0.00 in
10:39 91.7 °F 66.0 °F 29.94 in SSW 1.2 mph 0.1 mph 43 % 0.00 in
10:44 91.9 °F 63.4 °F 29.94 in NNE 3.5 mph 1.3 mph 39 % 0.00 in
10:49 91.6 °F 63.9 °F 29.94 in North 3.5 mph 0.6 mph 40 % 0.00 in
10:54 91.6 °F 63.9 °F 29.94 in NNW 2.3 mph 0.5 mph 40 % 0.00 in
10:59 92.0 °F 65.6 °F 29.94 in West 2.3 mph   42 % 0.00 in
11:04 92.8 °F 65.6 °F 29.94 in SSW 3.5 mph   41 % 0.00 in
11:09 93.0 °F 65.8 °F 29.94 in NW 2.3 mph 0.3 mph 41 % 0.00 in
11:14 93.1 °F 64.5 °F 29.94 in SSE 2.3 mph 0.7 mph 39 % 0.00 in
11:19 93.4 °F 64.0 °F 29.94 in NNW 1.2 mph 0.9 mph 38 % 0.00 in
11:24 93.2 °F 63.8 °F 29.94 in NNW 3.5 mph 0.8 mph 38 % 0.00 in
11:29 93.5 °F 64.8 °F 29.94 in North 1.2 mph 0.7 mph 39 % 0.00 in
11:34 93.7 °F 63.5 °F 29.94 in North 1.2 mph 0.2 mph 37 % 0.00 in
11:39 94.1 °F 65.4 °F 29.94 in South 1.2 mph 0.6 mph 39 % 0.00 in
11:44 94.3 °F 63.2 °F 29.94 in NW 1.0 mph 0.6 mph 36 % 0.00 in
11:49 94.8 °F 63.7 °F 29.93 in WNW 2.3 mph 0.7 mph 36 % 0.00 in
11:54 94.9 °F 66.1 °F 29.93 in South 2.3 mph 0.6 mph 39 % 0.00 in
11:59 95.2 °F 64.8 °F 29.93 in Calm     37 % 0.00 in
12:04 95.4 °F 61.7 °F 29.93 in NNW 2.3 mph 0.6 mph 33 % 0.00 in
12:09 95.7 °F 63.7 °F 29.93 in NW 1.2 mph 0.1 mph 35 % 0.00 in
12:14 96.0 °F 62.3 °F 29.93 in SW 1.2 mph 0.6 mph 33 % 0.00 in
12:19 96.1 °F 64.8 °F 29.93 in SE 2.3 mph 0.8 mph 36 % 0.00 in
12:24 96.2 °F 64.1 °F 29.92 in NW 1.2 mph 0.5 mph 35 % 0.00 in
12:29 96.4 °F 63.5 °F 29.92 in NNW 2.0 mph 1.7 mph 34 % 0.00 in
12:34 96.5 °F 62.7 °F 29.92 in WNW 3.5 mph   33 % 0.00 in
12:39 96.7 °F 63.7 °F 29.91 in WNW 3.0 mph 1.6 mph 34 % 0.00 in
12:44 97.0 °F 62.3 °F 29.91 in WNW 3.5 mph 1.3 mph 32 % 0.00 in
12:49 97.2 °F 63.3 °F 29.91 in NNW 3.5 mph 2.0 mph 33 % 0.00 in
12:54 96.7 °F 62.9 °F 29.91 in North 3.5 mph 1.0 mph 33 % 0.00 in
12:59 97.0 °F 62.3 °F 29.91 in NW 2.3 mph 0.2 mph 32 % 0.00 in
13:04 97.7 °F 64.6 °F 29.91 in SE 1.2 mph 0.5 mph 34 % 0.00 in
13:09 98.2 °F 62.4 °F 29.91 in NNE 3.5 mph 1.1 mph 31 % 0.00 in
13:14 98.3 °F 65.1 °F 29.90 in NW 3.5 mph 0.5 mph 34 % 0.00 in
13:19 98.3 °F 62.5 °F 29.90 in NW 4.6 mph 1.7 mph 31 % 0.00 in
13:24 98.2 °F 64.2 °F 29.91 in NW 1.2 mph 0.5 mph 33 % 0.00 in
13:29 98.4 °F 63.5 °F 29.90 in WSW 2.3 mph 0.8 mph 32 % 0.00 in
13:34 98.7 °F 62.8 °F 29.91 in WNW 3.5 mph 1.1 mph 31 % 0.00 in
13:39 98.3 °F 62.5 °F 29.90 in WNW 3.5 mph 1.7 mph 31 % 0.00 in
13:44 98.9 °F 63.9 °F 29.90 in North 1.2 mph 0.3 mph 32 % 0.00 in
13:49 98.9 °F 63.0 °F 29.90 in North 3.5 mph 2.0 mph 31 % 0.00 in
13:54 98.5 °F 62.6 °F 29.90 in NNW 2.0 mph 1.1 mph 31 % 0.00 in
13:59 98.7 °F 62.8 °F 29.89 in WNW 2.3 mph 1.0 mph 31 % 0.00 in
14:04 99.4 °F 64.3 °F 29.89 in North 2.3 mph   32 % 0.00 in
14:09 100.0 °F 63.9 °F 29.89 in North 1.2 mph 0.3 mph 31 % 0.00 in
14:14 100.2 °F 62.2 °F 29.89 in NW 3.5 mph 1.7 mph 29 % 0.00 in
14:19 99.9 °F 61.0 °F 29.89 in SSW 3.5 mph 0.9 mph 28 % 0.00 in
14:24 99.7 °F 61.8 °F 29.89 in NW 3.5 mph 3.4 mph 29 % 0.00 in
14:29 99.1 °F 63.2 °F 29.88 in NW 3.5 mph 1.1 mph 31 % 0.00 in
14:34 99.2 °F 63.3 °F 29.88 in NW 2.0 mph 0.7 mph 31 % 0.00 in
14:39 99.5 °F 62.6 °F 29.88 in NW 3.0 mph 1.9 mph 30 % 0.00 in
14:44 99.2 °F 61.4 °F 29.88 in West 3.5 mph 1.7 mph 29 % 0.00 in
14:49 99.7 °F 61.8 °F 29.88 in NW 2.0 mph 1.5 mph 29 % 0.00 in
14:54 99.9 °F 62.0 °F 29.88 in NW 3.5 mph 1.8 mph 29 % 0.00 in
14:59 99.6 °F 59.7 °F 29.87 in NW 3.5 mph 0.8 mph 27 % 0.00 in
15:04 99.5 °F 60.6 °F 29.87 in NW 3.5 mph 0.9 mph 28 % 0.00 in
15:09 99.7 °F 60.8 °F 29.87 in WSW 2.3 mph 0.8 mph 28 % 0.00 in
15:14 100.2 °F 62.2 °F 29.87 in NW 3.5 mph 1.6 mph 29 % 0.00 in
15:19 100.5 °F 62.5 °F 29.87 in NW 1.2 mph 1.1 mph 29 % 0.00 in
15:24 100.3 °F 60.3 °F 29.86 in NNW 3.5 mph 2.0 mph 27 % 0.00 in
15:29 100.2 °F 61.2 °F 29.86 in West 3.5 mph 1.7 mph 28 % 0.00 in
15:34 100.2 °F 61.2 °F 29.86 in West 1.0 mph 1.0 mph 28 % 0.00 in
15:39 100.7 °F 62.6 °F 29.86 in NNE 3.5 mph   29 % 0.00 in
15:44 101.1 °F 61.0 °F 29.86 in NW 2.3 mph 1.2 mph 27 % 0.00 in
15:49 101.0 °F 61.9 °F 29.86 in NNE 4.0 mph 1.0 mph 28 % 0.00 in
15:54 100.9 °F 60.8 °F 29.85 in NNW 3.5 mph 0.7 mph 27 % 0.00 in
15:59 100.9 °F 59.7 °F 29.85 in West 3.5 mph 0.9 mph 26 % 0.00 in
16:04 100.8 °F 60.7 °F 29.85 in West 3.5 mph 1.6 mph 27 % 0.00 in
16:09 101.2 °F 61.0 °F 29.85 in WNW 3.5 mph 1.6 mph 27 % 0.00 in
16:14 101.0 °F 61.9 °F 29.85 in West 2.3 mph 0.8 mph 28 % 0.00 in
16:19 101.1 °F 62.0 °F 29.85 in NW 3.5 mph 1.3 mph 28 % 0.00 in
16:24 100.9 °F 61.8 °F 29.85 in NW 4.6 mph 1.9 mph 28 % 0.00 in
16:29 100.9 °F 60.8 °F 29.85 in WNW 2.3 mph 1.8 mph 27 % 0.00 in
16:34 100.9 °F 62.8 °F 29.84 in NW 3.5 mph 0.9 mph 29 % 0.00 in
16:39 100.8 °F 62.7 °F 29.84 in WNW 3.5 mph 2.5 mph 29 % 0.00 in
16:44 100.4 °F 62.4 °F 29.84 in NW 2.3 mph 1.2 mph 29 % 0.00 in
16:49 100.4 °F 63.3 °F 29.84 in NW 3.5 mph 2.7 mph 30 % 0.00 in
16:54 100.3 °F 62.3 °F 29.83 in NW 3.5 mph 2.3 mph 29 % 0.00 in
16:59 100.1 °F 63.1 °F 29.83 in WNW 3.5 mph 1.9 mph 30 % 0.00 in
17:04 100.1 °F 64.0 °F 29.83 in North 4.0 mph 2.6 mph 31 % 0.00 in
17:09 99.8 °F 62.8 °F 29.83 in NW 4.0 mph 3.0 mph 30 % 0.00 in
17:14 99.7 °F 63.7 °F 29.83 in WNW 3.5 mph 1.1 mph 31 % 0.00 in
17:19 99.4 °F 64.3 °F 29.83 in NW 3.5 mph 2.5 mph 32 % 0.00 in
17:24 99.3 °F 65.1 °F 29.83 in WNW 3.5 mph 2.0 mph 33 % 0.00 in
17:29 99.3 °F 65.1 °F 29.83 in NNW 3.5 mph 1.2 mph 33 % 0.00 in
17:34 99.3 °F 65.1 °F 29.83 in NW 3.5 mph 1.8 mph 33 % 0.00 in
17:39 99.4 °F 66.1 °F 29.82 in NW 3.5 mph 1.3 mph 34 % 0.00 in
17:44 99.5 °F 66.2 °F 29.82 in NW 3.5 mph 1.2 mph 34 % 0.00 in
17:49 99.4 °F 65.2 °F 29.82 in NNE 3.5 mph 2.4 mph 33 % 0.00 in
17:55 99.2 °F 65.0 °F 29.82 in NW 2.3 mph 1.0 mph 33 % 0.00 in
17:59 99.1 °F 65.0 °F 29.82 in WNW 3.5 mph 1.9 mph 33 % 0.00 in
18:04 98.9 °F 65.6 °F 29.81 in WNW 3.5 mph 0.4 mph 34 % 0.00 in
18:09 99.1 °F 65.0 °F 29.81 in WNW 3.5 mph 1.5 mph 33 % 0.00 in
18:14 99.0 °F 64.0 °F 29.81 in NW 3.5 mph 1.3 mph 32 % 0.00 in
18:19 99.1 °F 64.1 °F 29.81 in NW 1.2 mph 1.0 mph 32 % 0.00 in
18:24 99.0 °F 64.9 °F 29.81 in NNW 4.0 mph 2.4 mph 33 % 0.00 in
18:29 98.5 °F 64.4 °F 29.81 in WNW 3.5 mph 1.8 mph 33 % 0.00 in
18:34 98.3 °F 65.1 °F 29.81 in NW 2.3 mph 1.0 mph 34 % 0.00 in
18:39 98.1 °F 65.8 °F 29.81 in WNW 3.5 mph 1.5 mph 35 % 0.00 in
18:44 98.0 °F 65.7 °F 29.81 in NNW 3.0 mph 1.2 mph 35 % 0.00 in
18:49 97.9 °F 65.6 °F 29.82 in WNW 2.3 mph 1.4 mph 35 % 0.00 in
18:54 97.7 °F 65.4 °F 29.82 in WNW 1.2 mph 0.6 mph 35 % 0.00 in
18:59 97.4 °F 66.0 °F 29.82 in NW 1.2 mph 0.6 mph 36 % 0.00 in
19:04 96.9 °F 64.7 °F 29.82 in NNW 2.3 mph 0.8 mph 35 % 0.00 in
19:09 96.4 °F 64.3 °F 29.82 in WNW 2.3 mph 0.8 mph 35 % 0.00 in
19:14 96.2 °F 64.9 °F 29.82 in NW 1.2 mph 0.3 mph 36 % 0.00 in
19:19 96.2 °F 64.9 °F 29.82 in Calm     36 % 0.00 in
19:24 95.8 °F 65.4 °F 29.82 in Calm     37 % 0.00 in
19:29 95.4 °F 65.8 °F 29.82 in NW 1.0 mph 0.3 mph 38 % 0.00 in
19:34 94.9 °F 66.1 °F 29.82 in Calm     39 % 0.00 in
19:39 94.5 °F 66.4 °F 29.82 in Calm     40 % 0.00 in
19:44 94.0 °F 66.7 °F 29.82 in Calm     41 % 0.00 in
19:49 93.6 °F 66.4 °F 29.83 in Calm     41 % 0.00 in
19:54 93.3 °F 66.8 °F 29.83 in Calm     42 % 0.00 in
19:59 92.9 °F 66.4 °F 29.83 in Calm     42 % 0.00 in
20:04 92.6 °F 66.2 °F 29.83 in Calm     42 % 0.00 in
20:09 92.4 °F 66.0 °F 29.83 in Calm     42 % 0.00 in
20:14 92.1 °F 65.7 °F 29.83 in Calm     42 % 0.00 in
20:19 91.8 °F 66.8 °F 29.84 in Calm     44 % 0.00 in
20:24 91.4 °F 66.4 °F 29.84 in Calm     44 % 0.00 in
20:29 91.0 °F 66.7 °F 29.84 in Calm     45 % 0.00 in
20:34 90.6 °F 67.0 °F 29.84 in Calm     46 % 0.00 in
20:39 90.2 °F 66.6 °F 29.84 in Calm     46 % 0.00 in
20:44 89.7 °F 67.4 °F 29.84 in Calm     48 % 0.00 in
20:49 89.2 °F 66.9 °F 29.84 in Calm     48 % 0.00 in
20:54 88.7 °F 67.1 °F 29.85 in Calm     49 % 0.00 in
20:59 88.3 °F 67.3 °F 29.85 in Calm     50 % 0.00 in
21:04 87.9 °F 68.1 °F 29.85 in Calm     52 % 0.00 in
21:09 87.5 °F 68.3 °F 29.85 in Calm     53 % 0.00 in
21:14 87.0 °F 67.8 °F 29.86 in Calm     53 % 0.00 in
21:19 86.5 °F 68.4 °F 29.86 in Calm     55 % 0.00 in
21:24 86.1 °F 68.0 °F 29.86 in Calm     55 % 0.00 in
21:29 85.9 °F 67.9 °F 29.86 in Calm     55 % 0.00 in
21:34 85.7 °F 67.7 °F 29.86 in Calm     55 % 0.00 in
21:39 85.4 °F 67.4 °F 29.86 in Calm     55 % 0.00 in
21:44 85.3 °F 67.3 °F 29.86 in Calm     55 % 0.00 in
21:49 85.2 °F 67.2 °F 29.87 in Calm     55 % 0.00 in
21:54 85.1 °F 67.6 °F 29.87 in Calm     56 % 0.00 in
21:59 84.8 °F 67.4 °F 29.87 in Calm     56 % 0.00 in
22:04 84.6 °F 68.2 °F 29.87 in Calm     58 % 0.00 in
22:09 84.4 °F 68.0 °F 29.87 in Calm     58 % 0.00 in
22:14 84.0 °F 68.1 °F 29.87 in Calm     59 % 0.00 in
22:19 83.6 °F 68.2 °F 29.87 in Calm     60 % 0.00 in
22:24 83.2 °F 68.3 °F 29.88 in Calm     61 % 0.00 in
22:29 82.8 °F 68.4 °F 29.88 in Calm     62 % 0.00 in
22:34 82.4 °F 68.5 °F 29.88 in Calm     63 % 0.00 in
22:39 82.1 °F 69.2 °F 29.88 in Calm     65 % 0.00 in
22:44 81.7 °F 68.8 °F 29.88 in Calm     65 % 0.00 in
22:49 81.4 °F 68.5 °F 29.88 in Calm     65 % 0.00 in
22:54 81.4 °F 68.5 °F 29.88 in Calm     65 % 0.00 in
22:59 81.5 °F 68.6 °F 29.88 in Calm     65 % 0.00 in
23:04 81.4 °F 68.5 °F 29.88 in Calm     65 % 0.00 in
23:09 81.1 °F 68.7 °F 29.88 in Calm     66 % 0.00 in
23:14 80.7 °F 68.7 °F 29.88 in Calm     67 % 0.00 in
23:19 80.2 °F 68.7 °F 29.88 in Calm     68 % 0.00 in
23:24 79.9 °F 68.4 °F 29.89 in Calm     68 % 0.00 in
23:29 79.8 °F 68.7 °F 29.89 in Calm     69 % 0.00 in
23:34 79.7 °F 68.6 °F 29.89 in Calm     69 % 0.00 in
23:39 79.6 °F 68.5 °F 29.89 in Calm     69 % 0.00 in
23:44 79.6 °F 68.1 °F 29.89 in Calm     68 % 0.00 in
23:49 79.7 °F 66.9 °F 29.89 in Calm   0.1 mph 65 % 0.00 in
23:54 80.0 °F 67.2 °F 29.89 in Calm     65 % 0.00 in
23:59 80.3 °F 67.0 °F 29.89 in Calm     64 % 0.00 in
Park Place, Exeter, Tulare County, California, USA
Compliments of Weather Underground - 2.75 mb